createdAt,value
2018-05-25T00:00:17.944Z,31
2018-05-25T00:01:23.002Z,31
2018-05-25T00:02:28.157Z,31
2018-05-25T00:03:33.924Z,31
2018-05-25T00:04:39.088Z,31
2018-05-25T00:05:43.957Z,31
2018-05-25T00:06:49.210Z,31
2018-05-25T00:07:54.082Z,31
2018-05-25T00:08:59.531Z,31
2018-05-25T00:10:04.945Z,31
2018-05-25T00:11:09.552Z,31
2018-05-25T00:12:15.025Z,31
2018-05-25T00:13:20.816Z,31
2018-05-25T00:14:26.011Z,31
2018-05-25T00:15:31.824Z,31
2018-05-25T00:16:37.271Z,31
2018-05-25T00:17:42.140Z,31
2018-05-25T00:18:47.016Z,31
2018-05-25T00:19:52.189Z,31
2018-05-25T00:20:57.643Z,31
2018-05-25T00:22:02.575Z,31
2018-05-25T00:23:07.183Z,31
2018-05-25T00:24:12.066Z,31
2018-05-25T00:25:17.874Z,31
2018-05-25T00:26:23.030Z,31
2018-05-25T00:27:28.782Z,31
2018-05-25T00:28:34.239Z,31
2018-05-25T00:29:39.404Z,31
2018-05-25T00:30:45.009Z,31
2018-05-25T00:31:50.453Z,31
2018-05-25T00:32:55.906Z,31
2018-05-25T00:34:01.120Z,31
2018-05-25T00:35:05.720Z,31
2018-05-25T00:36:10.889Z,31
2018-05-25T00:37:16.695Z,31
2018-05-25T00:38:22.161Z,31
2018-05-25T00:39:27.669Z,31
2018-05-25T00:40:32.830Z,31
2018-05-25T00:41:37.726Z,31
2018-05-25T00:42:43.423Z,31
2018-05-25T00:43:48.568Z,31
2018-05-25T00:44:53.447Z,31
2018-05-25T00:45:58.690Z,31
2018-05-25T00:47:02.721Z,31
2018-05-25T00:48:08.160Z,31
2018-05-25T00:49:13.728Z,31
2018-05-25T00:50:18.650Z,31
2018-05-25T00:51:23.880Z,31
2018-05-25T00:52:43.814Z,31
2018-05-25T00:53:48.978Z,31
2018-05-25T00:54:54.390Z,31
2018-05-25T00:55:59.271Z,31
2018-05-25T00:57:04.724Z,31
2018-05-25T00:58:09.913Z,31
2018-05-25T00:59:15.073Z,31
2018-05-25T01:00:20.509Z,31
2018-05-25T01:01:26.101Z,31
2018-05-25T01:02:30.987Z,31
2018-05-25T01:03:36.931Z,31
2018-05-25T01:04:42.379Z,31
2018-05-25T01:05:47.825Z,31
2018-05-25T01:06:53.524Z,31
2018-05-25T01:07:58.965Z,31
2018-05-25T01:09:04.425Z,31
2018-05-25T01:10:09.904Z,31
2018-05-25T01:11:15.070Z,31
2018-05-25T01:12:20.237Z,31
2018-05-25T01:13:40.281Z,31
2018-05-25T01:14:45.169Z,31
2018-05-25T01:15:51.056Z,31
2018-05-25T01:16:56.215Z,31
2018-05-25T01:18:01.367Z,31
2018-05-25T01:19:06.219Z,31
2018-05-25T01:20:11.119Z,31
2018-05-25T01:21:16.563Z,31
2018-05-25T01:22:22.069Z,31
2018-05-25T01:23:27.516Z,31
2018-05-25T01:24:32.949Z,31
2018-05-25T01:25:37.855Z,31
2018-05-25T01:26:43.009Z,31
2018-05-25T01:27:48.243Z,31
2018-05-25T01:28:53.411Z,31
2018-05-25T01:29:58.304Z,31
2018-05-25T01:31:04.001Z,31
2018-05-25T01:32:09.185Z,31
2018-05-25T01:33:14.344Z,31
2018-05-25T01:34:19.744Z,31
2018-05-25T01:35:24.344Z,31
2018-05-25T01:36:30.297Z,31
2018-05-25T01:37:35.466Z,31
2018-05-25T01:38:40.652Z,31
2018-05-25T01:39:46.341Z,31
2018-05-25T01:40:51.208Z,31
2018-05-25T01:41:56.657Z,31
2018-05-25T01:43:01.886Z,31
2018-05-25T01:44:07.333Z,31
2018-05-25T01:45:12.778Z,31
2018-05-25T01:46:18.191Z,31
2018-05-25T01:47:23.362Z,31
2018-05-25T01:48:28.975Z,31
2018-05-25T01:49:34.132Z,31
2018-05-25T01:50:39.589Z,31
2018-05-25T01:51:45.322Z,31
2018-05-25T01:52:50.477Z,31
2018-05-25T01:53:55.361Z,31
2018-05-25T01:55:00.968Z,31
2018-05-25T01:56:05.560Z,31
2018-05-25T01:57:11.045Z,31
2018-05-25T01:58:16.604Z,31
2018-05-25T01:59:21.496Z,31
2018-05-25T02:00:27.484Z,31
2018-05-25T02:01:32.940Z,31
2018-05-25T02:02:38.114Z,31
2018-05-25T02:03:44.053Z,31
2018-05-25T02:04:48.932Z,31
2018-05-25T02:05:54.382Z,31
2018-05-25T02:06:59.811Z,31
2018-05-25T02:08:05.276Z,31
2018-05-25T02:09:10.439Z,31
2018-05-25T02:10:15.854Z,31
2018-05-25T02:11:20.431Z,31
2018-05-25T02:12:26.233Z,31
2018-05-25T02:13:31.691Z,31
2018-05-25T02:14:36.572Z,31
2018-05-25T02:15:41.821Z,31
2018-05-25T02:16:46.976Z,31
2018-05-25T02:17:52.651Z,31
2018-05-25T02:18:58.244Z,31
2018-05-25T02:20:03.466Z,31
2018-05-25T02:21:08.674Z,31
2018-05-25T02:22:14.511Z,31
2018-05-25T02:23:19.679Z,31
2018-05-25T02:24:40.012Z,31
2018-05-25T02:25:45.466Z,31
2018-05-25T02:26:50.651Z,31
2018-05-25T02:27:56.542Z,31
2018-05-25T02:29:01.710Z,30
2018-05-25T02:30:06.303Z,31
2018-05-25T02:31:11.485Z,31
2018-05-25T02:32:16.655Z,31
2018-05-25T02:33:21.528Z,31
2018-05-25T02:34:26.981Z,30
2018-05-25T02:35:32.144Z,31
2018-05-25T02:36:37.441Z,31
2018-05-25T02:37:42.329Z,31
2018-05-25T02:38:47.766Z,30
2018-05-25T02:39:53.275Z,30
2018-05-25T02:40:58.431Z,30
2018-05-25T02:42:03.045Z,30
2018-05-25T02:43:08.174Z,30
2018-05-25T02:44:13.055Z,30
2018-05-25T02:45:18.227Z,30
2018-05-25T02:46:23.978Z,30
2018-05-25T02:47:29.135Z,30
2018-05-25T02:48:34.125Z,30
2018-05-25T02:49:39.010Z,30
2018-05-25T02:50:44.457Z,30
2018-05-25T02:51:49.868Z,30
2018-05-25T02:52:55.317Z,30
2018-05-25T02:54:00.183Z,30
2018-05-25T02:55:05.615Z,30
2018-05-25T02:56:10.797Z,30
2018-05-25T02:57:15.973Z,30
2018-05-25T02:58:21.677Z,30
2018-05-25T03:00:31.989Z,30
2018-05-25T03:01:37.155Z,30
2018-05-25T03:02:42.621Z,30
2018-05-25T03:03:48.039Z,30
2018-05-25T03:04:53.206Z,30
2018-05-25T03:05:58.462Z,30
2018-05-25T03:07:03.582Z,30
2018-05-25T03:08:08.459Z,31
2018-05-25T03:09:13.359Z,31
2018-05-25T03:10:19.050Z,31
2018-05-25T03:11:23.930Z,31
2018-05-25T03:12:29.410Z,31
2018-05-25T03:13:34.858Z,31
2018-05-25T03:14:40.306Z,32
2018-05-25T03:15:45.870Z,32
2018-05-25T03:16:51.356Z,32
2018-05-25T03:17:56.565Z,32
2018-05-25T03:19:02.182Z,32
2018-05-25T03:20:06.805Z,32
2018-05-25T03:21:11.425Z,32
2018-05-25T03:22:17.132Z,33
2018-05-25T03:23:21.998Z,33
2018-05-25T03:24:27.224Z,33
2018-05-25T03:25:32.671Z,33
2018-05-25T03:26:37.541Z,33
2018-05-25T03:27:43.234Z,33
2018-05-25T03:28:47.818Z,33
2018-05-25T03:29:52.983Z,33
2018-05-25T03:30:58.505Z,33
2018-05-25T03:32:03.687Z,33
2018-05-25T03:33:09.133Z,33
2018-05-25T03:34:14.689Z,34
2018-05-25T03:35:19.852Z,33
2018-05-25T03:36:40.227Z,34
2018-05-25T03:37:45.400Z,34
2018-05-25T03:38:50.568Z,34
2018-05-25T03:39:56.264Z,34
2018-05-25T03:41:01.145Z,34
2018-05-25T03:42:05.737Z,34
2018-05-25T03:43:10.138Z,34
2018-05-25T03:44:15.301Z,34
2018-05-25T03:45:20.164Z,34
2018-05-25T03:46:40.325Z,34
2018-05-25T03:47:45.760Z,34
2018-05-25T03:48:50.886Z,34
2018-05-25T03:49:56.336Z,34
2018-05-25T03:51:01.496Z,34
2018-05-25T03:52:06.231Z,34
2018-05-25T03:53:11.393Z,34
2018-05-25T03:54:16.546Z,34
2018-05-25T03:55:21.664Z,34
2018-05-25T03:56:26.834Z,34
2018-05-25T03:57:31.845Z,34
2018-05-25T03:58:37.006Z,35
2018-05-25T03:59:42.445Z,35
2018-05-25T04:00:47.578Z,34
2018-05-25T04:01:52.735Z,35
2018-05-25T04:02:58.175Z,35
2018-05-25T04:04:03.602Z,35
2018-05-25T04:05:08.483Z,35
2018-05-25T04:06:13.968Z,35
2018-05-25T04:07:19.668Z,35
2018-05-25T04:08:25.122Z,35
2018-05-25T04:09:30.539Z,35
2018-05-25T04:10:35.698Z,35
2018-05-25T04:11:41.168Z,35
2018-05-25T04:12:46.679Z,35
2018-05-25T04:13:52.121Z,35
2018-05-25T04:14:57.281Z,35
2018-05-25T04:16:02.969Z,35
2018-05-25T04:17:07.340Z,35
2018-05-25T04:18:12.778Z,35
2018-05-25T04:19:17.910Z,35
2018-05-25T04:20:23.366Z,35
2018-05-25T04:21:29.081Z,35
2018-05-25T04:22:34.244Z,35
2018-05-25T04:23:39.413Z,35
2018-05-25T04:24:44.560Z,35
2018-05-25T04:25:50.004Z,35
2018-05-25T04:26:55.167Z,35
2018-05-25T04:28:00.582Z,35
2018-05-25T04:29:05.485Z,35
2018-05-25T04:30:10.389Z,35
2018-05-25T04:31:15.498Z,35
2018-05-25T04:32:20.939Z,35
2018-05-25T04:33:26.376Z,36
2018-05-25T04:34:30.974Z,36
2018-05-25T04:35:35.866Z,36
2018-05-25T04:36:41.356Z,36
2018-05-25T04:37:46.800Z,36
2018-05-25T04:38:51.984Z,36
2018-05-25T04:39:57.403Z,36
2018-05-25T04:41:02.289Z,36
2018-05-25T04:42:07.169Z,36
2018-05-25T04:43:13.094Z,36
2018-05-25T04:44:18.034Z,36
2018-05-25T04:45:23.494Z,36
2018-05-25T04:46:43.809Z,36
2018-05-25T04:47:48.675Z,36
2018-05-25T04:48:54.087Z,36
2018-05-25T04:49:58.995Z,36
2018-05-25T04:51:03.578Z,36
2018-05-25T04:52:09.135Z,36
2018-05-25T04:53:14.038Z,36
2018-05-25T04:54:19.488Z,36
2018-05-25T04:55:24.941Z,36
2018-05-25T04:56:30.380Z,36
2018-05-25T04:57:35.501Z,36
2018-05-25T04:58:40.957Z,36
2018-05-25T04:59:46.155Z,36
2018-05-25T05:00:51.287Z,36
2018-05-25T05:01:56.728Z,36
2018-05-25T05:03:02.225Z,36
2018-05-25T05:04:07.973Z,36
2018-05-25T05:05:13.136Z,36
2018-05-25T05:06:18.589Z,36
2018-05-25T05:07:24.374Z,36
2018-05-25T05:08:29.540Z,36
2018-05-25T05:09:35.244Z,36
2018-05-25T05:10:40.679Z,36
2018-05-25T05:11:45.569Z,36
2018-05-25T05:12:51.045Z,36
2018-05-25T05:13:56.201Z,36
2018-05-25T05:15:01.371Z,36
2018-05-25T05:16:05.952Z,36
2018-05-25T05:17:11.406Z,36
2018-05-25T05:18:16.564Z,36
2018-05-25T05:19:22.182Z,36
2018-05-25T05:20:27.359Z,36
2018-05-25T05:21:32.974Z,36
2018-05-25T05:22:37.859Z,36
2018-05-25T05:23:43.304Z,36
2018-05-25T05:24:48.992Z,36
2018-05-25T05:25:54.438Z,36
2018-05-25T05:26:59.886Z,36
2018-05-25T05:28:05.112Z,36
2018-05-25T05:29:10.291Z,36
2018-05-25T05:30:15.488Z,36
2018-05-25T05:31:20.350Z,36
2018-05-25T05:32:25.820Z,37
2018-05-25T05:33:31.939Z,37
2018-05-25T05:34:37.174Z,36
2018-05-25T05:35:42.051Z,37
2018-05-25T05:36:47.667Z,37
2018-05-25T05:37:52.822Z,37
2018-05-25T05:38:58.259Z,37
2018-05-25T05:40:02.849Z,37
2018-05-25T05:41:07.722Z,37
2018-05-25T05:42:12.602Z,37
2018-05-25T05:43:18.026Z,37
2018-05-25T05:44:22.901Z,37
2018-05-25T05:45:28.465Z,37
2018-05-25T05:46:33.135Z,37
2018-05-25T05:47:38.025Z,37
2018-05-25T05:48:43.819Z,37
2018-05-25T05:49:48.976Z,37
2018-05-25T05:50:54.182Z,37
2018-05-25T05:51:59.749Z,37
2018-05-25T05:53:04.901Z,37
2018-05-25T05:54:09.777Z,37
2018-05-25T05:55:15.283Z,37
2018-05-25T05:56:20.735Z,37
2018-05-25T05:57:26.502Z,37
2018-05-25T05:58:31.376Z,37
2018-05-25T05:59:36.534Z,37
2018-05-25T06:00:41.780Z,37
2018-05-25T06:01:46.948Z,37
2018-05-25T06:02:52.114Z,37
2018-05-25T06:03:57.908Z,37
2018-05-25T06:05:02.711Z,37
2018-05-25T06:06:07.876Z,37
2018-05-25T06:07:13.346Z,37
2018-05-25T06:08:18.502Z,37
2018-05-25T06:09:23.383Z,37
2018-05-25T06:10:28.432Z,37
2018-05-25T06:11:33.607Z,37
2018-05-25T06:12:38.850Z,37
2018-05-25T06:13:44.307Z,37
2018-05-25T06:14:49.185Z,37
2018-05-25T06:15:54.615Z,37
2018-05-25T06:16:59.782Z,37
2018-05-25T06:18:05.220Z,37
2018-05-25T06:19:10.913Z,37
2018-05-25T06:20:16.398Z,37
2018-05-25T06:21:21.865Z,37
2018-05-25T06:22:27.651Z,37
2018-05-25T06:23:33.147Z,37
2018-05-25T06:24:38.717Z,37
2018-05-25T06:25:43.882Z,37
2018-05-25T06:26:48.754Z,37
2018-05-25T06:27:54.206Z,37
2018-05-25T06:28:59.643Z,37
2018-05-25T06:30:04.251Z,37
2018-05-25T06:31:09.386Z,37
2018-05-25T06:32:14.553Z,37
2018-05-25T06:33:19.726Z,37
2018-05-25T06:34:25.136Z,37
2018-05-25T06:35:29.729Z,37
2018-05-25T06:36:35.097Z,37
2018-05-25T06:37:40.251Z,37
2018-05-25T06:38:45.144Z,37
2018-05-25T06:39:50.266Z,37
2018-05-25T06:40:55.437Z,37
2018-05-25T06:42:00.311Z,37
2018-05-25T06:43:05.587Z,37
2018-05-25T06:44:10.182Z,37
2018-05-25T06:45:15.057Z,37
2018-05-25T06:46:20.471Z,37
2018-05-25T06:47:25.645Z,37
2018-05-25T06:48:31.342Z,37
2018-05-25T06:49:35.943Z,37
2018-05-25T06:50:41.460Z,37
2018-05-25T06:51:46.940Z,37
2018-05-25T06:52:52.106Z,37
2018-05-25T06:53:57.572Z,37
2018-05-25T06:55:02.801Z,37
2018-05-25T06:56:06.857Z,37
2018-05-25T06:57:12.299Z,37
2018-05-25T06:58:18.105Z,37
2018-05-25T06:59:23.287Z,37
2018-05-25T07:00:28.431Z,37
2018-05-25T07:01:33.311Z,37
2018-05-25T07:02:38.453Z,37
2018-05-25T07:03:43.692Z,37
2018-05-25T07:04:49.149Z,37
2018-05-25T07:05:54.592Z,37
2018-05-25T07:07:00.009Z,37
2018-05-25T07:08:05.183Z,37
2018-05-25T07:09:10.363Z,37
2018-05-25T07:10:16.058Z,37
2018-05-25T07:11:21.206Z,37
2018-05-25T07:12:26.848Z,37
2018-05-25T07:13:32.279Z,37
2018-05-25T07:14:37.155Z,37
2018-05-25T07:15:42.668Z,37
2018-05-25T07:16:48.100Z,37
2018-05-25T07:17:53.245Z,37
2018-05-25T07:18:58.716Z,37
2018-05-25T07:20:03.605Z,37
2018-05-25T07:21:08.802Z,37
2018-05-25T07:22:14.216Z,37
2018-05-25T07:23:19.657Z,36
2018-05-25T07:24:24.530Z,37
2018-05-25T07:25:29.948Z,37
2018-05-25T07:26:34.818Z,36
2018-05-25T07:27:40.383Z,37
2018-05-25T07:28:45.840Z,36
2018-05-25T07:29:51.003Z,37
2018-05-25T07:30:56.468Z,37
2018-05-25T07:32:01.364Z,37
2018-05-25T07:33:06.260Z,37
2018-05-25T07:34:11.951Z,37
2018-05-25T07:35:16.538Z,37
2018-05-25T07:36:22.025Z,37
2018-05-25T07:37:27.653Z,37
2018-05-25T07:38:33.084Z,37
2018-05-25T07:39:38.324Z,37
2018-05-25T07:40:43.755Z,37
2018-05-25T07:41:48.933Z,37
2018-05-25T07:42:54.347Z,37
2018-05-25T07:43:59.780Z,37
2018-05-25T07:45:04.638Z,37
2018-05-25T07:46:10.061Z,37
2018-05-25T07:47:14.932Z,37
2018-05-25T07:48:20.364Z,36
2018-05-25T07:49:25.636Z,36
2018-05-25T07:50:30.241Z,36
2018-05-25T07:51:35.979Z,36
2018-05-25T07:52:40.857Z,37
2018-05-25T07:53:45.738Z,37
2018-05-25T07:54:51.239Z,36
2018-05-25T07:55:56.409Z,36
2018-05-25T07:57:01.578Z,36
2018-05-25T07:58:06.531Z,36
2018-05-25T07:59:11.703Z,36
2018-05-25T08:00:17.449Z,36
2018-05-25T08:01:22.915Z,36
2018-05-25T08:02:28.346Z,36
2018-05-25T08:03:34.127Z,36
2018-05-25T08:04:39.561Z,36
2018-05-25T08:05:44.734Z,36
2018-05-25T08:06:50.669Z,36
2018-05-25T08:07:55.855Z,36
2018-05-25T08:09:01.287Z,36
2018-05-25T08:10:06.429Z,36
2018-05-25T08:11:11.235Z,36
2018-05-25T08:12:16.678Z,36
2018-05-25T08:13:22.240Z,36
2018-05-25T08:14:28.006Z,36
2018-05-25T08:15:33.573Z,36
2018-05-25T08:16:39.041Z,36
2018-05-25T08:17:44.472Z,36
2018-05-25T08:18:50.156Z,36
2018-05-25T08:19:55.595Z,36
2018-05-25T08:21:01.061Z,36
2018-05-25T08:22:06.151Z,36
2018-05-25T08:23:11.452Z,36
2018-05-25T08:24:16.884Z,36
2018-05-25T08:25:23.072Z,36
2018-05-25T08:26:28.288Z,36
2018-05-25T08:27:34.015Z,36
2018-05-25T08:28:39.447Z,36
2018-05-25T08:29:44.600Z,36
2018-05-25T08:30:49.502Z,36
2018-05-25T08:31:54.359Z,36
2018-05-25T08:32:59.242Z,36
2018-05-25T08:34:04.646Z,36
2018-05-25T08:35:09.501Z,36
2018-05-25T08:36:14.947Z,36
2018-05-25T08:37:20.482Z,36
2018-05-25T08:38:25.639Z,36
2018-05-25T08:39:31.633Z,36
2018-05-25T08:40:36.818Z,36
2018-05-25T08:41:41.975Z,36
2018-05-25T08:42:47.663Z,36
2018-05-25T08:43:52.569Z,36
2018-05-25T08:44:57.998Z,36
2018-05-25T08:46:03.120Z,36
2018-05-25T08:47:08.513Z,36
2018-05-25T08:48:13.666Z,36
2018-05-25T08:49:19.080Z,36
2018-05-25T08:50:24.535Z,36
2018-05-25T08:51:29.566Z,36
2018-05-25T08:52:34.728Z,36
2018-05-25T08:53:40.206Z,36
2018-05-25T08:54:45.504Z,36
2018-05-25T08:55:50.951Z,36
2018-05-25T08:56:56.497Z,36
2018-05-25T08:58:01.614Z,36
2018-05-25T08:59:05.929Z,36
2018-05-25T09:00:11.085Z,36
2018-05-25T09:01:16.279Z,36
2018-05-25T09:02:20.911Z,36
2018-05-25T09:03:26.517Z,36
2018-05-25T09:04:32.043Z,36
2018-05-25T09:05:37.217Z,36
2018-05-25T09:06:42.857Z,35
2018-05-25T09:07:47.854Z,36
2018-05-25T09:08:53.025Z,35
2018-05-25T09:09:58.535Z,35
2018-05-25T09:11:03.979Z,35
2018-05-25T09:12:08.863Z,36
2018-05-25T09:13:14.526Z,35
2018-05-25T09:14:19.409Z,36
2018-05-25T09:15:24.585Z,36
2018-05-25T09:16:30.490Z,36
2018-05-25T09:17:35.634Z,36
2018-05-25T09:18:40.758Z,36
2018-05-25T09:19:45.924Z,36
2018-05-25T09:20:51.244Z,36
2018-05-25T09:21:57.066Z,36
2018-05-25T09:23:02.552Z,36
2018-05-25T09:24:07.734Z,36
2018-05-25T09:25:12.973Z,36
2018-05-25T09:26:18.118Z,36
2018-05-25T09:27:22.999Z,36
2018-05-25T09:28:29.027Z,36
2018-05-25T09:29:34.457Z,36
2018-05-25T09:30:39.798Z,36
2018-05-25T09:31:45.154Z,36
2018-05-25T09:32:50.337Z,36
2018-05-25T09:33:55.570Z,36
2018-05-25T09:35:00.600Z,36
2018-05-25T09:36:04.628Z,36
2018-05-25T09:37:09.576Z,36
2018-05-25T09:38:14.458Z,36
2018-05-25T09:39:19.891Z,36
2018-05-25T09:40:40.121Z,36
2018-05-25T09:41:45.554Z,36
2018-05-25T09:42:50.875Z,36
2018-05-25T09:43:55.767Z,36
2018-05-25T09:45:00.934Z,36
2018-05-25T09:46:05.765Z,36
2018-05-25T09:47:10.931Z,36
2018-05-25T09:48:16.104Z,36
2018-05-25T09:49:20.933Z,36
2018-05-25T09:50:26.006Z,36
2018-05-25T09:51:30.886Z,36
2018-05-25T09:52:35.975Z,36
2018-05-25T09:53:41.120Z,36
2018-05-25T09:54:46.541Z,36
2018-05-25T09:55:51.418Z,36
2018-05-25T09:56:56.865Z,36
2018-05-25T09:58:02.907Z,36
2018-05-25T09:59:07.796Z,36
2018-05-25T10:00:12.878Z,36
2018-05-25T10:01:17.914Z,36
2018-05-25T10:02:23.556Z,36
2018-05-25T10:03:28.749Z,36
2018-05-25T10:04:34.045Z,36
2018-05-25T10:05:39.481Z,36
2018-05-25T10:06:44.411Z,36
2018-05-25T10:07:49.558Z,36
2018-05-25T10:08:55.005Z,36
2018-05-25T10:10:00.135Z,36
2018-05-25T10:11:05.302Z,36
2018-05-25T10:12:10.735Z,36
2018-05-25T10:13:15.967Z,36
2018-05-25T10:14:20.473Z,36
2018-05-25T10:15:40.401Z,36
2018-05-25T10:16:45.557Z,36
2018-05-25T10:17:50.755Z,36
2018-05-25T10:18:55.871Z,36
2018-05-25T10:20:01.059Z,36
2018-05-25T10:21:05.980Z,36
2018-05-25T10:22:11.387Z,36
2018-05-25T10:23:16.556Z,36
2018-05-25T10:24:21.701Z,36
2018-05-25T10:25:27.480Z,36
2018-05-25T10:26:32.644Z,36
2018-05-25T10:27:37.485Z,36
2018-05-25T10:28:42.671Z,36
2018-05-25T10:29:47.923Z,36
2018-05-25T10:30:53.343Z,36
2018-05-25T10:31:58.798Z,36
2018-05-25T10:33:04.238Z,36
2018-05-25T10:34:09.735Z,36
2018-05-25T10:35:14.601Z,36
2018-05-25T10:36:19.775Z,36
2018-05-25T10:37:25.907Z,35
2018-05-25T10:38:31.340Z,35
2018-05-25T10:39:37.047Z,35
2018-05-25T10:40:42.477Z,36
2018-05-25T10:41:47.909Z,35
2018-05-25T10:42:53.059Z,36
2018-05-25T10:43:58.219Z,36
2018-05-25T10:45:03.378Z,35
2018-05-25T10:46:08.509Z,35
2018-05-25T10:47:13.672Z,35
2018-05-25T10:48:19.135Z,35
2018-05-25T10:49:24.653Z,35
2018-05-25T10:50:29.797Z,35
2018-05-25T10:51:35.204Z,35
2018-05-25T10:52:40.371Z,35
2018-05-25T10:53:45.239Z,35
2018-05-25T10:54:50.372Z,35
2018-05-25T10:55:55.869Z,35
2018-05-25T10:57:00.854Z,35
2018-05-25T10:58:06.126Z,35
2018-05-25T10:59:11.274Z,35
2018-05-25T11:00:16.721Z,35
2018-05-25T11:01:21.946Z,35
2018-05-25T11:02:27.443Z,35
2018-05-25T11:03:32.765Z,35
2018-05-25T11:04:37.641Z,35
2018-05-25T11:05:42.825Z,35
2018-05-25T11:06:48.240Z,35
2018-05-25T11:07:53.676Z,35
2018-05-25T11:08:58.561Z,35
2018-05-25T11:10:04.064Z,35
2018-05-25T11:11:09.536Z,35
2018-05-25T11:12:14.994Z,35
2018-05-25T11:13:19.965Z,35
2018-05-25T11:14:24.881Z,35
2018-05-25T11:15:30.202Z,35
2018-05-25T11:16:35.623Z,35
2018-05-25T11:17:40.785Z,35
2018-05-25T11:18:46.219Z,35
2018-05-25T11:19:51.666Z,35
2018-05-25T11:20:56.920Z,35
2018-05-25T11:22:02.551Z,35
2018-05-25T11:23:07.696Z,35
2018-05-25T11:24:13.135Z,35
2018-05-25T11:25:18.540Z,35
2018-05-25T11:26:24.002Z,35
2018-05-25T11:27:29.650Z,35
2018-05-25T11:28:34.224Z,35
2018-05-25T11:29:39.573Z,35
2018-05-25T11:30:44.405Z,35
2018-05-25T11:31:49.551Z,35
2018-05-25T11:32:54.989Z,35
2018-05-25T11:34:00.105Z,35
2018-05-25T11:35:05.551Z,35
2018-05-25T11:36:10.994Z,35
2018-05-25T11:37:16.122Z,35
2018-05-25T11:38:21.203Z,35
2018-05-25T11:39:26.900Z,35
2018-05-25T11:40:32.343Z,35
2018-05-25T11:41:37.501Z,35
2018-05-25T11:42:43.395Z,35
2018-05-25T11:43:48.875Z,35
2018-05-25T11:44:54.464Z,35
2018-05-25T11:46:00.026Z,35
2018-05-25T11:47:04.605Z,35
2018-05-25T11:48:09.484Z,35
2018-05-25T11:49:14.896Z,35
2018-05-25T11:50:20.327Z,35
2018-05-25T11:51:25.811Z,35
2018-05-25T11:52:30.968Z,35
2018-05-25T11:53:36.404Z,35
2018-05-25T11:54:41.675Z,35
2018-05-25T11:55:46.822Z,35
2018-05-25T11:56:51.989Z,35
2018-05-25T11:57:57.180Z,35
2018-05-25T11:59:02.060Z,35
2018-05-25T12:00:06.945Z,35
2018-05-25T12:01:12.065Z,35
2018-05-25T12:02:17.493Z,35
2018-05-25T12:03:22.363Z,35
2018-05-25T12:04:27.478Z,35
2018-05-25T12:05:32.926Z,35
2018-05-25T12:06:38.254Z,35
2018-05-25T12:07:43.245Z,34
2018-05-25T12:08:48.681Z,34
2018-05-25T12:09:54.075Z,34
2018-05-25T12:10:59.230Z,34
2018-05-25T12:12:04.119Z,34
2018-05-25T12:13:09.903Z,34
2018-05-25T12:14:14.780Z,34
2018-05-25T12:15:19.640Z,34
2018-05-25T12:16:25.370Z,34
2018-05-25T12:17:30.400Z,34
2018-05-25T12:18:35.809Z,34
2018-05-25T12:19:40.972Z,34
2018-05-25T12:20:46.617Z,34
2018-05-25T12:21:52.021Z,34
2018-05-25T12:22:56.899Z,34
2018-05-25T12:24:01.472Z,34
2018-05-25T12:25:06.416Z,34
2018-05-25T12:26:11.573Z,34
2018-05-25T12:27:17.209Z,34
2018-05-25T12:28:23.109Z,34
2018-05-25T12:29:28.549Z,34
2018-05-25T12:30:34.092Z,34
2018-05-25T12:31:39.248Z,34
2018-05-25T12:32:44.389Z,34
2018-05-25T12:33:49.813Z,34
2018-05-25T12:34:55.167Z,34
2018-05-25T12:36:00.320Z,34
2018-05-25T12:37:05.447Z,34
2018-05-25T12:38:10.327Z,34
2018-05-25T12:39:14.898Z,34
2018-05-25T12:40:20.329Z,34
2018-05-25T12:41:25.478Z,34
2018-05-25T12:42:30.825Z,34
2018-05-25T12:43:36.461Z,34
2018-05-25T12:44:41.645Z,34
2018-05-25T12:45:46.855Z,34
2018-05-25T12:46:52.293Z,34
2018-05-25T12:47:57.180Z,34
2018-05-25T12:49:01.769Z,34
2018-05-25T12:50:06.976Z,34
2018-05-25T12:51:12.056Z,34
2018-05-25T12:52:17.622Z,34
2018-05-25T12:53:22.224Z,34
2018-05-25T12:54:27.818Z,34
2018-05-25T12:55:33.228Z,34
2018-05-25T12:56:38.146Z,34
2018-05-25T12:57:43.933Z,34
2018-05-25T12:58:49.379Z,34
2018-05-25T12:59:54.837Z,34
2018-05-25T13:01:00.248Z,34
2018-05-25T13:02:04.845Z,34
2018-05-25T13:03:10.241Z,34
2018-05-25T13:04:15.740Z,34
2018-05-25T13:05:21.183Z,34
2018-05-25T13:06:26.518Z,34
2018-05-25T13:07:31.961Z,34
2018-05-25T13:08:37.124Z,34
2018-05-25T13:09:42.544Z,34
2018-05-25T13:10:47.327Z,34
2018-05-25T13:11:52.195Z,34
2018-05-25T13:12:57.878Z,34
2018-05-25T13:14:03.025Z,34
2018-05-25T13:15:07.882Z,34
2018-05-25T13:16:13.457Z,34
2018-05-25T13:17:18.067Z,34
2018-05-25T13:18:22.933Z,34
2018-05-25T13:19:29.473Z,34
2018-05-25T13:20:34.544Z,34
2018-05-25T13:21:40.029Z,34
2018-05-25T13:22:45.546Z,34
2018-05-25T13:23:50.450Z,34
2018-05-25T13:24:55.820Z,34
2018-05-25T13:26:00.977Z,34
2018-05-25T13:27:05.572Z,34
2018-05-25T13:28:11.124Z,34
2018-05-25T13:29:16.304Z,34
2018-05-25T13:30:21.178Z,34
2018-05-25T13:31:26.651Z,34
2018-05-25T13:32:31.813Z,34
2018-05-25T13:33:37.505Z,34
2018-05-25T13:34:42.656Z,34
2018-05-25T13:35:47.535Z,34
2018-05-25T13:36:52.938Z,34
2018-05-25T13:37:58.103Z,34
2018-05-25T13:39:02.988Z,34
2018-05-25T13:40:08.685Z,34
2018-05-25T13:41:13.840Z,34
2018-05-25T13:42:18.434Z,34
2018-05-25T13:43:23.677Z,34
2018-05-25T13:44:29.109Z,34
2018-05-25T13:45:34.341Z,34
2018-05-25T13:46:39.207Z,34
2018-05-25T13:47:44.638Z,34
2018-05-25T13:48:50.318Z,34
2018-05-25T13:49:55.757Z,34
2018-05-25T13:51:00.945Z,34
2018-05-25T13:52:06.367Z,34
2018-05-25T13:53:11.850Z,34
2018-05-25T13:54:17.256Z,34
2018-05-25T13:55:23.038Z,34
2018-05-25T13:56:28.379Z,34
2018-05-25T13:57:34.332Z,34
2018-05-25T13:58:39.773Z,34
2018-05-25T13:59:44.932Z,34
2018-05-25T14:00:50.158Z,34
2018-05-25T14:01:55.615Z,34
2018-05-25T14:03:00.513Z,34
2018-05-25T14:04:06.205Z,34
2018-05-25T14:05:11.091Z,34
2018-05-25T14:06:16.721Z,34
2018-05-25T14:07:22.152Z,34
2018-05-25T14:08:27.297Z,34
2018-05-25T14:09:32.419Z,34
2018-05-25T14:10:37.603Z,34
2018-05-25T14:11:43.101Z,34
2018-05-25T14:12:48.747Z,34
2018-05-25T14:13:54.181Z,34
2018-05-25T14:14:59.633Z,34
2018-05-25T14:16:04.468Z,34
2018-05-25T14:17:09.088Z,34
2018-05-25T14:18:14.237Z,34
2018-05-25T14:19:19.794Z,34
2018-05-25T14:20:24.980Z,34
2018-05-25T14:21:30.796Z,34
2018-05-25T14:22:35.951Z,34
2018-05-25T14:23:41.388Z,34
2018-05-25T14:24:46.517Z,34
2018-05-25T14:25:51.402Z,34
2018-05-25T14:26:56.834Z,34
2018-05-25T14:28:02.226Z,34
2018-05-25T14:29:07.591Z,34
2018-05-25T14:30:12.465Z,34
2018-05-25T14:31:18.011Z,34
2018-05-25T14:32:22.878Z,34
2018-05-25T14:33:28.826Z,34
2018-05-25T14:34:33.995Z,34
2018-05-25T14:35:39.179Z,34
2018-05-25T14:36:44.590Z,34
2018-05-25T14:37:50.033Z,34
2018-05-25T14:38:54.904Z,34
2018-05-25T14:39:59.479Z,34
2018-05-25T14:41:04.639Z,34
2018-05-25T14:42:09.824Z,33
2018-05-25T14:43:14.387Z,34
2018-05-25T14:44:19.562Z,33
2018-05-25T14:45:25.303Z,33
2018-05-25T14:46:30.176Z,33
2018-05-25T14:47:35.349Z,33
2018-05-25T14:48:41.179Z,33
2018-05-25T14:49:46.610Z,33
2018-05-25T14:50:51.789Z,33
2018-05-25T14:51:57.208Z,33
2018-05-25T14:53:02.078Z,33
2018-05-25T14:54:06.118Z,33
2018-05-25T14:55:11.617Z,33
2018-05-25T14:56:17.061Z,33
2018-05-25T14:57:22.508Z,33
2018-05-25T14:58:28.204Z,33
2018-05-25T14:59:33.374Z,33
2018-05-25T15:00:38.235Z,33
2018-05-25T15:01:43.100Z,33
2018-05-25T15:02:47.702Z,33
2018-05-25T15:03:53.108Z,33
2018-05-25T15:04:57.974Z,33
2018-05-25T15:06:03.200Z,33
2018-05-25T15:07:08.577Z,33
2018-05-25T15:08:13.464Z,33
2018-05-25T15:09:18.897Z,33
2018-05-25T15:10:24.314Z,33
2018-05-25T15:11:29.474Z,33
2018-05-25T15:12:34.736Z,33
2018-05-25T15:13:39.618Z,33
2018-05-25T15:14:44.781Z,33
2018-05-25T15:15:49.950Z,33
2018-05-25T15:16:54.859Z,33
2018-05-25T15:18:00.292Z,33
2018-05-25T15:19:05.559Z,33
2018-05-25T15:20:10.433Z,33
2018-05-25T15:21:15.897Z,33
2018-05-25T15:22:22.076Z,33
2018-05-25T15:23:27.508Z,33
2018-05-25T15:24:33.079Z,33
2018-05-25T15:25:38.517Z,33
2018-05-25T15:26:43.958Z,33
2018-05-25T15:27:49.798Z,33
2018-05-25T15:28:54.680Z,33
2018-05-25T15:29:59.832Z,33
2018-05-25T15:31:05.134Z,33
2018-05-25T15:32:10.169Z,33
2018-05-25T15:33:14.745Z,33